sensor_id;sensor_type;location;lat;lon;timestamp;pressure;altitude;pressure_sealevel;temperature;humidity
60371;BME280;48550;40.588;49.684;2023-12-20T00:02:19;102788.25;;;5.42;67.02
60371;BME280;48550;40.588;49.684;2023-12-20T00:04:45;102775.88;;;5.49;66.51
60371;BME280;48550;40.588;49.684;2023-12-20T00:07:10;102774.31;;;5.41;67.03
60371;BME280;48550;40.588;49.684;2023-12-20T00:09:36;102774.97;;;5.50;66.68
60371;BME280;48550;40.588;49.684;2023-12-20T00:12:02;102784.66;;;5.48;66.98
60371;BME280;48550;40.588;49.684;2023-12-20T00:14:28;102774.25;;;5.43;66.61
60371;BME280;48550;40.588;49.684;2023-12-20T00:16:53;102763.75;;;5.44;66.60
60371;BME280;48550;40.588;49.684;2023-12-20T00:19:19;102769.19;;;5.35;67.03
60371;BME280;48550;40.588;49.684;2023-12-20T00:21:45;102769.31;;;5.31;67.06
60371;BME280;48550;40.588;49.684;2023-12-20T00:24:11;102761.50;;;5.27;66.43
60371;BME280;48550;40.588;49.684;2023-12-20T00:26:36;102767.59;;;5.28;66.95
60371;BME280;48550;40.588;49.684;2023-12-20T00:29:02;102759.00;;;5.23;66.91
60371;BME280;48550;40.588;49.684;2023-12-20T00:31:28;102757.41;;;5.17;65.56
60371;BME280;48550;40.588;49.684;2023-12-20T00:33:53;102757.19;;;5.26;65.27
60371;BME280;48550;40.588;49.684;2023-12-20T00:36:20;102744.09;;;5.26;65.63
60371;BME280;48550;40.588;49.684;2023-12-20T00:38:45;102753.00;;;5.18;65.84
60371;BME280;48550;40.588;49.684;2023-12-20T00:41:11;102747.03;;;5.13;64.98
60371;BME280;48550;40.588;49.684;2023-12-20T00:43:37;102745.31;;;5.10;65.47
60371;BME280;48550;40.588;49.684;2023-12-20T00:46:02;102739.16;;;5.13;64.72
60371;BME280;48550;40.588;49.684;2023-12-20T00:48:28;102738.50;;;5.03;64.71
60371;BME280;48550;40.588;49.684;2023-12-20T00:50:56;102748.22;;;4.96;64.43
60371;BME280;48550;40.588;49.684;2023-12-20T00:53:22;102741.16;;;5.01;64.66
60371;BME280;48550;40.588;49.684;2023-12-20T00:55:48;102735.03;;;5.01;64.65
60371;BME280;48550;40.588;49.684;2023-12-20T00:58:15;102737.56;;;5.05;64.45
60371;BME280;48550;40.588;49.684;2023-12-20T01:00:41;102741.91;;;5.06;64.44
60371;BME280;48550;40.588;49.684;2023-12-20T01:03:08;102727.97;;;5.06;64.14
60371;BME280;48550;40.588;49.684;2023-12-20T01:05:34;102738.28;;;5.12;63.76
60371;BME280;48550;40.588;49.684;2023-12-20T01:07:59;102731.25;;;5.16;64.02
60371;BME280;48550;40.588;49.684;2023-12-20T01:10:25;102733.03;;;5.12;63.18
60371;BME280;48550;40.588;49.684;2023-12-20T01:12:53;102737.44;;;5.12;63.18
60371;BME280;48550;40.588;49.684;2023-12-20T01:15:19;102723.53;;;5.09;62.80
60371;BME280;48550;40.588;49.684;2023-12-20T01:17:45;102732.19;;;5.12;62.65
60371;BME280;48550;40.588;49.684;2023-12-20T01:20:10;102727.03;;;5.08;63.15
60371;BME280;48550;40.588;49.684;2023-12-20T01:22:36;102721.59;;;5.18;62.91
60371;BME280;48550;40.588;49.684;2023-12-20T01:25:02;102719.91;;;5.14;62.45
60371;BME280;48550;40.588;49.684;2023-12-20T01:27:28;102729.47;;;5.16;62.38
60371;BME280;48550;40.588;49.684;2023-12-20T01:29:54;102721.59;;;5.18;62.15
60371;BME280;48550;40.588;49.684;2023-12-20T01:32:20;102725.97;;;5.17;62.34
60371;BME280;48550;40.588;49.684;2023-12-20T01:34:45;102746.03;;;5.17;63.08
60371;BME280;48550;40.588;49.684;2023-12-20T01:37:11;102746.03;;;5.17;62.53
60371;BME280;48550;40.588;49.684;2023-12-20T01:39:37;102746.91;;;5.17;63.40
60371;BME280;48550;40.588;49.684;2023-12-20T01:42:03;102755.69;;;5.15;63.37
60371;BME280;48550;40.588;49.684;2023-12-20T01:44:28;102747.97;;;5.08;63.06
60371;BME280;48550;40.588;49.684;2023-12-20T01:46:54;102747.97;;;5.08;62.81
60371;BME280;48550;40.588;49.684;2023-12-20T01:49:20;102744.34;;;5.16;63.15
60371;BME280;48550;40.588;49.684;2023-12-20T01:51:47;102737.44;;;5.12;63.26
60371;BME280;48550;40.588;49.684;2023-12-20T01:54:13;102736.69;;;5.06;62.90
60371;BME280;48550;40.588;49.684;2023-12-20T01:56:39;102734.97;;;5.04;62.42
60371;BME280;48550;40.588;49.684;2023-12-20T01:59:06;102734.75;;;5.15;62.15
60371;BME280;48550;40.588;49.684;2023-12-20T02:01:33;102731.91;;;5.24;61.86
60371;BME280;48550;40.588;49.684;2023-12-20T02:03:59;102734.47;;;5.27;61.09
60371;BME280;48550;40.588;49.684;2023-12-20T02:06:29;102730.13;;;5.26;61.71
60371;BME280;48550;40.588;49.684;2023-12-20T02:08:56;102732.56;;;5.34;61.38
60371;BME280;48550;40.588;49.684;2023-12-20T02:11:22;102735.94;;;5.39;60.72
60371;BME280;48550;40.588;49.684;2023-12-20T02:13:47;102731.56;;;5.39;61.09
60371;BME280;48550;40.588;49.684;2023-12-20T02:16:13;102736.81;;;5.39;60.75
60371;BME280;48550;40.588;49.684;2023-12-20T02:18:39;102736.59;;;5.47;60.55
60371;BME280;48550;40.588;49.684;2023-12-20T02:21:05;102738.22;;;5.53;61.36
60371;BME280;48550;40.588;49.684;2023-12-20T02:23:31;102751.25;;;5.56;60.58
60371;BME280;48550;40.588;49.684;2023-12-20T02:25:57;102738.97;;;5.58;60.38
60371;BME280;48550;40.588;49.684;2023-12-20T02:28:23;102759.03;;;5.59;60.44
60371;BME280;48550;40.588;49.684;2023-12-20T02:30:48;102753.81;;;5.59;61.06
60371;BME280;48550;40.588;49.684;2023-12-20T02:33:15;102759.94;;;5.58;61.62
60371;BME280;48550;40.588;49.684;2023-12-20T02:35:41;102757.56;;;5.47;60.95
60371;BME280;48550;40.588;49.684;2023-12-20T02:38:06;102755.75;;;5.51;60.80
60371;BME280;48550;40.588;49.684;2023-12-20T02:40:32;102753.06;;;5.54;61.03
60371;BME280;48550;40.588;49.684;2023-12-20T02:42:58;102758.06;;;5.63;61.74
60371;BME280;48550;40.588;49.684;2023-12-20T02:45:23;102756.88;;;5.76;61.36
60371;BME280;48550;40.588;49.684;2023-12-20T02:47:49;102760.44;;;5.72;60.20
60371;BME280;48550;40.588;49.684;2023-12-20T02:50:15;102765.84;;;5.66;60.81
60371;BME280;48550;40.588;49.684;2023-12-20T02:52:42;102766.03;;;5.60;60.77
60371;BME280;48550;40.588;49.684;2023-12-20T02:55:08;102765.59;;;5.77;60.53
60371;BME280;48550;40.588;49.684;2023-12-20T02:57:34;102766.69;;;5.68;60.27
60371;BME280;48550;40.588;49.684;2023-12-20T03:00:01;102770.25;;;5.64;60.80
60371;BME280;48550;40.588;49.684;2023-12-20T03:02:27;102762.84;;;5.45;61.24
60371;BME280;48550;40.588;49.684;2023-12-20T03:04:53;102767.41;;;5.37;61.30
60371;BME280;48550;40.588;49.684;2023-12-20T03:07:19;102772.50;;;5.43;61.54
60371;BME280;48550;40.588;49.684;2023-12-20T03:09:45;102767.31;;;5.40;61.30
60371;BME280;48550;40.588;49.684;2023-12-20T03:12:11;102772.59;;;5.39;61.60
60371;BME280;48550;40.588;49.684;2023-12-20T03:14:36;102773.44;;;5.41;61.36
60371;BME280;48550;40.588;49.684;2023-12-20T03:17:02;102771.47;;;5.51;61.74
60371;BME280;48550;40.588;49.684;2023-12-20T03:19:28;102779.13;;;5.60;60.89
60371;BME280;48550;40.588;49.684;2023-12-20T03:21:54;102782.59;;;5.60;61.46
60371;BME280;48550;40.588;49.684;2023-12-20T03:24:20;102781.75;;;5.60;61.07
60371;BME280;48550;40.588;49.684;2023-12-20T03:26:45;102786.00;;;5.64;60.77
60371;BME280;48550;40.588;49.684;2023-12-20T03:29:11;102794.78;;;5.61;61.42
60371;BME280;48550;40.588;49.684;2023-12-20T03:31:37;102795.81;;;5.56;61.01
60371;BME280;48550;40.588;49.684;2023-12-20T03:34:02;102809.78;;;5.55;61.21
60371;BME280;48550;40.588;49.684;2023-12-20T03:36:28;102796.72;;;5.53;61.41
60371;BME280;48550;40.588;49.684;2023-12-20T03:38:54;102810.81;;;5.49;61.98
60371;BME280;48550;40.588;49.684;2023-12-20T03:41:19;102809.09;;;5.47;62.87
60371;BME280;48550;40.588;49.684;2023-12-20T03:43:45;102818.59;;;5.52;63.63
60371;BME280;48550;40.588;49.684;2023-12-20T03:46:11;102817.50;;;5.61;62.18
60371;BME280;48550;40.588;49.684;2023-12-20T03:48:37;102812.47;;;5.52;62.77
60371;BME280;48550;40.588;49.684;2023-12-20T03:51:02;102814.19;;;5.54;63.30
60371;BME280;48550;40.588;49.684;2023-12-20T03:53:28;102814.22;;;5.53;62.53
60371;BME280;48550;40.588;49.684;2023-12-20T03:55:54;102817.69;;;5.53;63.26
60371;BME280;48550;40.588;49.684;2023-12-20T03:58:19;102816.28;;;5.38;63.41
60371;BME280;48550;40.588;49.684;2023-12-20T04:00:45;102810.28;;;5.33;64.63
60371;BME280;48550;40.588;49.684;2023-12-20T04:03:10;102807.97;;;5.19;64.35
60371;BME280;48550;40.588;49.684;2023-12-20T04:05:40;102811.38;;;5.23;69.48
60371;BME280;48550;40.588;49.684;2023-12-20T04:08:06;102812.41;;;5.16;65.29
60371;BME280;48550;40.588;49.684;2023-12-20T04:10:31;102805.25;;;5.24;64.93
60371;BME280;48550;40.588;49.684;2023-12-20T04:12:57;102815.59;;;5.68;64.04
60371;BME280;48550;40.588;49.684;2023-12-20T04:15:23;102827.66;;;6.47;60.96
60371;BME280;48550;40.588;49.684;2023-12-20T04:17:48;102818.13;;;7.35;58.73
60371;BME280;48550;40.588;49.684;2023-12-20T04:20:14;102827.19;;;7.81;55.71
60371;BME280;48550;40.588;49.684;2023-12-20T04:22:39;102826.56;;;8.00;55.61
60371;BME280;48550;40.588;49.684;2023-12-20T04:25:05;102835.50;;;7.39;56.49
60371;BME280;48550;40.588;49.684;2023-12-20T04:27:31;102834.50;;;8.25;54.37
60371;BME280;48550;40.588;49.684;2023-12-20T04:29:57;102841.50;;;7.99;54.56
60371;BME280;48550;40.588;49.684;2023-12-20T04:32:22;102836.22;;;7.46;56.43
60371;BME280;48550;40.588;49.684;2023-12-20T04:34:48;102849.97;;;7.24;57.80
60371;BME280;48550;40.588;49.684;2023-12-20T04:37:14;102850.28;;;7.98;55.33
60371;BME280;48550;40.588;49.684;2023-12-20T04:39:39;102857.91;;;7.53;55.92
60371;BME280;48550;40.588;49.684;2023-12-20T04:42:06;102847.91;;;7.92;55.89
60371;BME280;48550;40.588;49.684;2023-12-20T04:44:32;102851.34;;;8.71;54.38
60371;BME280;48550;40.588;49.684;2023-12-20T04:46:58;102853.91;;;7.96;55.17
60371;BME280;48550;40.588;49.684;2023-12-20T04:49:23;102859.69;;;7.51;56.20
60371;BME280;48550;40.588;49.684;2023-12-20T04:51:50;102862.19;;;7.27;57.47
60371;BME280;48550;40.588;49.684;2023-12-20T04:54:15;102862.19;;;7.27;57.48
60371;BME280;48550;40.588;49.684;2023-12-20T04:56:41;102859.50;;;7.29;56.85
60371;BME280;48550;40.588;49.684;2023-12-20T04:59:07;102860.00;;;7.41;56.33
60371;BME280;48550;40.588;49.684;2023-12-20T05:01:32;102860.75;;;7.45;56.57
60371;BME280;48550;40.588;49.684;2023-12-20T05:03:58;102858.00;;;7.50;56.09
60371;BME280;48550;40.588;49.684;2023-12-20T05:06:24;102859.41;;;7.60;55.39
60371;BME280;48550;40.588;49.684;2023-12-20T05:08:50;102856.56;;;7.68;54.98
60371;BME280;48550;40.588;49.684;2023-12-20T05:11:15;102853.91;;;8.23;53.55
60371;BME280;48550;40.588;49.684;2023-12-20T05:13:41;102856.75;;;10.48;48.48
60371;BME280;48550;40.588;49.684;2023-12-20T05:16:07;102852.94;;;12.76;43.07
60371;BME280;48550;40.588;49.684;2023-12-20T05:18:34;102864.72;;;13.68;40.62
60371;BME280;48550;40.588;49.684;2023-12-20T05:21:00;102858.16;;;14.50;38.97
60371;BME280;48550;40.588;49.684;2023-12-20T05:23:26;102856.97;;;15.13;37.24
60371;BME280;48550;40.588;49.684;2023-12-20T05:25:52;102858.75;;;15.69;36.19
60371;BME280;48550;40.588;49.684;2023-12-20T05:28:17;102859.16;;;15.63;36.34
60371;BME280;48550;40.588;49.684;2023-12-20T05:30:43;102860.44;;;16.50;34.27
60371;BME280;48550;40.588;49.684;2023-12-20T05:33:09;102865.25;;;16.45;34.18
60371;BME280;48550;40.588;49.684;2023-12-20T05:35:34;102863.75;;;16.66;35.09
60371;BME280;48550;40.588;49.684;2023-12-20T05:38:00;102870.13;;;16.51;35.56
60371;BME280;48550;40.588;49.684;2023-12-20T05:40:26;102869.63;;;16.97;34.46
60371;BME280;48550;40.588;49.684;2023-12-20T05:42:51;102866.72;;;16.75;34.42
60371;BME280;48550;40.588;49.684;2023-12-20T05:45:17;102874.75;;;16.88;33.67
60371;BME280;48550;40.588;49.684;2023-12-20T05:47:43;102866.91;;;16.84;34.17
60371;BME280;48550;40.588;49.684;2023-12-20T05:50:08;102865.34;;;16.82;33.75
60371;BME280;48550;40.588;49.684;2023-12-20T05:52:34;102864.47;;;16.30;35.47
60371;BME280;48550;40.588;49.684;2023-12-20T05:55:00;102875.66;;;15.68;35.77
60371;BME280;48550;40.588;49.684;2023-12-20T05:57:28;102871.22;;;16.61;34.58
60371;BME280;48550;40.588;49.684;2023-12-20T05:59:54;102873.19;;;16.32;35.34
60371;BME280;48550;40.588;49.684;2023-12-20T06:02:20;102873.22;;;17.09;33.88
60371;BME280;48550;40.588;49.684;2023-12-20T06:04:45;102862.38;;;17.85;32.57
60371;BME280;48550;40.588;49.684;2023-12-20T06:07:15;102867.38;;;17.41;33.10
60371;BME280;48550;40.588;49.684;2023-12-20T06:09:41;102866.97;;;16.97;34.03
60371;BME280;48550;40.588;49.684;2023-12-20T06:12:07;102864.47;;;16.68;34.10
60371;BME280;48550;40.588;49.684;2023-12-20T06:14:34;102864.25;;;16.84;34.35
60371;BME280;48550;40.588;49.684;2023-12-20T06:17:00;102867.91;;;16.71;33.83
60371;BME280;48550;40.588;49.684;2023-12-20T06:19:27;102859.56;;;16.49;35.15
60371;BME280;48550;40.588;49.684;2023-12-20T06:21:52;102860.13;;;16.55;34.29
60371;BME280;48550;40.588;49.684;2023-12-20T06:24:18;102856.13;;;17.25;33.31
60371;BME280;48550;40.588;49.684;2023-12-20T06:26:44;102856.97;;;17.73;33.35
60371;BME280;48550;40.588;49.684;2023-12-20T06:29:09;102855.13;;;17.63;33.23
60371;BME280;48550;40.588;49.684;2023-12-20T06:31:35;102862.97;;;17.16;34.86
60371;BME280;48550;40.588;49.684;2023-12-20T06:34:01;102854.06;;;16.91;34.64
60371;BME280;48550;40.588;49.684;2023-12-20T06:36:27;102857.09;;;17.11;34.82
60371;BME280;48550;40.588;49.684;2023-12-20T06:38:52;102862.69;;;16.03;36.75
60371;BME280;48550;40.588;49.684;2023-12-20T06:41:18;102861.34;;;13.34;42.06
60371;BME280;48550;40.588;49.684;2023-12-20T06:43:44;102860.38;;;12.17;44.94
60371;BME280;48550;40.588;49.684;2023-12-20T06:46:10;102859.00;;;11.35;47.37
60371;BME280;48550;40.588;49.684;2023-12-20T06:48:35;102857.25;;;10.77;48.55
60371;BME280;48550;40.588;49.684;2023-12-20T06:51:01;102860.09;;;10.73;49.03
60371;BME280;48550;40.588;49.684;2023-12-20T06:53:28;102853.22;;;10.68;49.00
60371;BME280;48550;40.588;49.684;2023-12-20T06:55:53;102844.91;;;10.57;50.84
60371;BME280;48550;40.588;49.684;2023-12-20T06:58:21;102848.13;;;10.64;50.15
60371;BME280;48550;40.588;49.684;2023-12-20T07:00:47;102851.34;;;10.51;51.34
60371;BME280;48550;40.588;49.684;2023-12-20T07:03:13;102852.63;;;10.62;50.43
60371;BME280;48550;40.588;49.684;2023-12-20T07:05:39;102848.63;;;10.53;50.99
60371;BME280;48550;40.588;49.684;2023-12-20T07:08:06;102853.97;;;10.51;51.13
60371;BME280;48550;40.588;49.684;2023-12-20T07:10:32;102846.78;;;10.55;51.55
60371;BME280;48550;40.588;49.684;2023-12-20T07:12:57;102843.06;;;10.59;51.93
60371;BME280;48550;40.588;49.684;2023-12-20T07:15:23;102837.50;;;10.65;52.15
60371;BME280;48550;40.588;49.684;2023-12-20T07:17:49;102839.81;;;10.73;51.58
60371;BME280;48550;40.588;49.684;2023-12-20T07:20:15;102845.47;;;10.84;51.18
60371;BME280;48550;40.588;49.684;2023-12-20T07:22:40;102838.03;;;10.93;51.06
60371;BME280;48550;40.588;49.684;2023-12-20T07:25:06;102843.13;;;10.97;51.81
60371;BME280;48550;40.588;49.684;2023-12-20T07:27:32;102834.56;;;11.11;51.08
60371;BME280;48550;40.588;49.684;2023-12-20T07:29:58;102825.66;;;11.14;50.39
60371;BME280;48550;40.588;49.684;2023-12-20T07:32:24;102825.44;;;11.18;50.93
60371;BME280;48550;40.588;49.684;2023-12-20T07:34:49;102824.56;;;11.18;50.95
60371;BME280;48550;40.588;49.684;2023-12-20T07:37:15;102813.25;;;11.33;50.83
60371;BME280;48550;40.588;49.684;2023-12-20T07:39:41;102818.00;;;11.27;50.63
60371;BME280;48550;40.588;49.684;2023-12-20T07:42:07;102807.84;;;11.36;50.23
60371;BME280;48550;40.588;49.684;2023-12-20T07:44:34;102804.56;;;11.31;51.50
60371;BME280;48550;40.588;49.684;2023-12-20T07:47:01;102812.56;;;11.30;50.90
60371;BME280;48550;40.588;49.684;2023-12-20T07:49:27;102798.69;;;11.24;51.12
60371;BME280;48550;40.588;49.684;2023-12-20T07:51:53;102806.75;;;11.21;50.86
60371;BME280;48550;40.588;49.684;2023-12-20T07:54:18;102796.03;;;11.24;51.12
60371;BME280;48550;40.588;49.684;2023-12-20T07:56:46;102798.47;;;11.29;51.48
60371;BME280;48550;40.588;49.684;2023-12-20T07:59:11;102786.59;;;11.38;51.38
60371;BME280;48550;40.588;49.684;2023-12-20T08:01:37;102797.50;;;11.49;51.29
60371;BME280;48550;40.588;49.684;2023-12-20T08:04:03;102784.06;;;11.54;50.74
60371;BME280;48550;40.588;49.684;2023-12-20T08:06:29;102767.03;;;11.59;50.08
60371;BME280;48550;40.588;49.684;2023-12-20T08:08:54;102777.31;;;11.66;49.57
60371;BME280;48550;40.588;49.684;2023-12-20T08:11:20;102767.03;;;11.77;49.75
60371;BME280;48550;40.588;49.684;2023-12-20T08:13:46;102766.41;;;11.72;49.59
60371;BME280;48550;40.588;49.684;2023-12-20T08:16:11;102753.81;;;11.77;49.90
60371;BME280;48550;40.588;49.684;2023-12-20T08:18:39;102753.66;;;11.80;49.84
60371;BME280;48550;40.588;49.684;2023-12-20T08:21:05;102758.09;;;11.79;49.17
60371;BME280;48550;40.588;49.684;2023-12-20T08:23:33;102740.03;;;11.88;49.43
60371;BME280;48550;40.588;49.684;2023-12-20T08:26:06;102741.09;;;12.03;49.45
60371;BME280;48550;40.588;49.684;2023-12-20T08:28:31;102732.72;;;12.10;49.28
60371;BME280;48550;40.588;49.684;2023-12-20T08:30:57;102731.47;;;12.18;47.93
60371;BME280;48550;40.588;49.684;2023-12-20T08:33:23;102724.31;;;12.02;48.04
60371;BME280;48550;40.588;49.684;2023-12-20T08:35:49;102725.13;;;12.04;47.62
60371;BME280;48550;40.588;49.684;2023-12-20T08:38:14;102709.84;;;12.09;47.58
60371;BME280;48550;40.588;49.684;2023-12-20T08:40:40;102715.28;;;12.06;46.96
60371;BME280;48550;40.588;49.684;2023-12-20T08:43:06;102712.34;;;12.12;47.25
60371;BME280;48550;40.588;49.684;2023-12-20T08:45:32;102706.06;;;12.13;47.26
60371;BME280;48550;40.588;49.684;2023-12-20T08:47:58;102710.59;;;12.11;46.93
60371;BME280;48550;40.588;49.684;2023-12-20T08:50:25;102702.44;;;12.16;47.17
60371;BME280;48550;40.588;49.684;2023-12-20T08:52:51;102705.84;;;12.18;46.85
60371;BME280;48550;40.588;49.684;2023-12-20T08:55:16;102698.63;;;12.22;47.73
60371;BME280;48550;40.588;49.684;2023-12-20T08:57:43;102694.16;;;12.22;48.37
60371;BME280;48550;40.588;49.684;2023-12-20T09:00:09;102698.69;;;12.20;48.23
60371;BME280;48550;40.588;49.684;2023-12-20T09:02:35;102692.59;;;12.18;48.46
60371;BME280;48550;40.588;49.684;2023-12-20T09:05:04;102692.31;;;12.07;48.81
60371;BME280;48550;40.588;49.684;2023-12-20T09:07:30;102690.81;;;12.19;48.48
60371;BME280;48550;40.588;49.684;2023-12-20T09:09:57;102677.66;;;12.17;49.05
60371;BME280;48550;40.588;49.684;2023-12-20T09:12:23;102670.31;;;12.22;48.98
60371;BME280;48550;40.588;49.684;2023-12-20T09:14:50;102683.31;;;12.27;49.45
60371;BME280;48550;40.588;49.684;2023-12-20T09:17:17;102675.91;;;12.33;49.40
60371;BME280;48550;40.588;49.684;2023-12-20T09:19:44;102671.84;;;12.26;50.78
60371;BME280;48550;40.588;49.684;2023-12-20T09:22:10;102673.41;;;12.30;50.91
60371;BME280;48550;40.588;49.684;2023-12-20T09:24:35;102654.69;;;12.33;51.28
60371;BME280;48550;40.588;49.684;2023-12-20T09:27:01;102654.88;;;12.30;51.47
60371;BME280;48550;40.588;49.684;2023-12-20T09:29:28;102666.38;;;12.29;51.64
60371;BME280;48550;40.588;49.684;2023-12-20T09:31:54;102650.00;;;12.39;52.33
60371;BME280;48550;40.588;49.684;2023-12-20T09:34:20;102658.72;;;12.41;52.09
60371;BME280;48550;40.588;49.684;2023-12-20T09:36:46;102650.00;;;12.39;52.66
60371;BME280;48550;40.588;49.684;2023-12-20T09:39:16;102657.69;;;12.43;52.59
60371;BME280;48550;40.588;49.684;2023-12-20T09:41:51;102644.19;;;12.32;52.83
60371;BME280;48550;40.588;49.684;2023-12-20T09:44:19;102653.34;;;12.42;52.59
60371;BME280;48550;40.588;49.684;2023-12-20T09:46:47;102647.34;;;12.39;52.89
60371;BME280;48550;40.588;49.684;2023-12-20T09:49:15;102643.78;;;12.40;52.84
60371;BME280;48550;40.588;49.684;2023-12-20T09:51:42;102643.03;;;12.38;52.60
60371;BME280;48550;40.588;49.684;2023-12-20T09:54:09;102635.66;;;12.43;53.16
60371;BME280;48550;40.588;49.684;2023-12-20T09:56:35;102627.22;;;12.36;53.13
60371;BME280;48550;40.588;49.684;2023-12-20T09:59:02;102632.22;;;12.41;53.05
60371;BME280;48550;40.588;49.684;2023-12-20T10:01:28;102622.00;;;12.34;53.00
60371;BME280;48550;40.588;49.684;2023-12-20T10:03:54;102616.88;;;12.31;53.59
60371;BME280;48550;40.588;49.684;2023-12-20T10:06:23;102625.13;;;12.25;53.22
60371;BME280;48550;40.588;49.684;2023-12-20T10:08:49;102612.31;;;12.33;53.08
60371;BME280;48550;40.588;49.684;2023-12-20T10:11:14;102615.56;;;12.39;52.99
60371;BME280;48550;40.588;49.684;2023-12-20T10:13:41;102618.72;;;12.29;53.10
60371;BME280;48550;40.588;49.684;2023-12-20T10:16:07;102608.66;;;12.20;53.15
60371;BME280;48550;40.588;49.684;2023-12-20T10:18:33;102600.16;;;12.13;54.03
60371;BME280;48550;40.588;49.684;2023-12-20T10:21:00;102604.38;;;12.18;53.78
60371;BME280;48550;40.588;49.684;2023-12-20T10:23:26;102600.16;;;12.13;54.19
60371;BME280;48550;40.588;49.684;2023-12-20T10:25:58;102599.91;;;12.18;54.59
60371;BME280;48550;40.588;49.684;2023-12-20T10:28:24;102610.41;;;12.20;54.11
60371;BME280;48550;40.588;49.684;2023-12-20T10:30:53;102596.34;;;12.19;53.65
60371;BME280;48550;40.588;49.684;2023-12-20T10:33:26;102603.53;;;12.17;54.09
60371;BME280;48550;40.588;49.684;2023-12-20T10:35:52;102597.97;;;12.22;54.34
60371;BME280;48550;40.588;49.684;2023-12-20T10:38:18;102601.22;;;12.27;54.33
60371;BME280;48550;40.588;49.684;2023-12-20T10:40:47;102595.13;;;12.41;54.09
60371;BME280;48550;40.588;49.684;2023-12-20T10:43:13;102600.34;;;12.42;53.97
60371;BME280;48550;40.588;49.684;2023-12-20T10:45:41;102590.28;;;12.33;53.58
60371;BME280;48550;40.588;49.684;2023-12-20T10:48:07;102581.22;;;12.37;53.91
60371;BME280;48550;40.588;49.684;2023-12-20T10:50:36;102591.13;;;12.33;53.83
60371;BME280;48550;40.588;49.684;2023-12-20T10:53:03;102594.13;;;12.27;53.88
60371;BME280;48550;40.588;49.684;2023-12-20T10:55:29;102586.25;;;12.26;53.58
60371;BME280;48550;40.588;49.684;2023-12-20T10:58:08;102589.06;;;12.07;54.65
60371;BME280;48550;40.588;49.684;2023-12-20T11:00:41;102593.91;;;11.98;54.81
60371;BME280;48550;40.588;49.684;2023-12-20T11:03:11;102590.50;;;11.96;54.84
60371;BME280;48550;40.588;49.684;2023-12-20T11:06:59;102583.31;;;11.98;55.14
60371;BME280;48550;40.588;49.684;2023-12-20T11:08:57;102592.75;;;12.04;55.29
60371;BME280;48550;40.588;49.684;2023-12-20T11:11:39;102588.63;;;11.98;55.19
60371;BME280;48550;40.588;49.684;2023-12-20T11:14:15;102579.50;;;12.04;54.95
60371;BME280;48550;40.588;49.684;2023-12-20T11:16:42;102589.47;;;11.99;55.19
60371;BME280;48550;40.588;49.684;2023-12-20T11:19:08;102590.19;;;12.03;55.42
60371;BME280;48550;40.588;49.684;2023-12-20T11:21:36;102592.66;;;12.06;55.30
60371;BME280;48550;40.588;49.684;2023-12-20T11:24:03;102569.41;;;11.95;54.71
60371;BME280;48550;40.588;49.684;2023-12-20T11:26:29;102582.25;;;11.85;55.45
60371;BME280;48550;40.588;49.684;2023-12-20T11:29:29;102593.09;;;11.80;54.85
60371;BME280;48550;40.588;49.684;2023-12-20T11:31:55;102576.50;;;11.77;55.50
60371;BME280;48550;40.588;49.684;2023-12-20T11:34:21;102585.72;;;11.70;54.87
60371;BME280;48550;40.588;49.684;2023-12-20T11:36:46;102589.28;;;11.69;55.34
60371;BME280;48550;40.588;49.684;2023-12-20T11:39:20;102585.88;;;11.67;55.80
60371;BME280;48550;40.588;49.684;2023-12-20T11:41:46;102571.88;;;11.65;55.59
60371;BME280;48550;40.588;49.684;2023-12-20T11:44:17;102578.78;;;11.67;54.99
60371;BME280;48550;40.588;49.684;2023-12-20T11:46:44;102573.97;;;11.58;55.91
60371;BME280;48550;40.588;49.684;2023-12-20T11:49:10;102583.00;;;11.54;55.30
60371;BME280;48550;40.588;49.684;2023-12-20T11:51:40;102583.09;;;11.52;55.57
60371;BME280;48550;40.588;49.684;2023-12-20T11:54:06;102578.72;;;11.51;55.34
60371;BME280;48550;40.588;49.684;2023-12-20T11:56:32;102570.03;;;11.49;55.38
60371;BME280;48550;40.588;49.684;2023-12-20T11:58:58;102571.03;;;11.47;55.50
60371;BME280;48550;40.588;49.684;2023-12-20T12:01:24;102554.91;;;11.51;55.02
60371;BME280;48550;40.588;49.684;2023-12-20T12:04:02;102564.22;;;11.42;55.17
60371;BME280;48550;40.588;49.684;2023-12-20T12:06:28;102565.53;;;11.34;55.44
60371;BME280;48550;40.588;49.684;2023-12-20T12:08:54;102557.66;;;11.32;55.48
60371;BME280;48550;40.588;49.684;2023-12-20T12:11:21;102566.88;;;11.25;56.08
60371;BME280;48550;40.588;49.684;2023-12-20T12:13:47;102560.16;;;11.18;56.62
60371;BME280;48550;40.588;49.684;2023-12-20T12:16:17;102553.88;;;11.20;56.92
60371;BME280;48550;40.588;49.684;2023-12-20T12:18:44;102548.91;;;11.14;56.84
60371;BME280;48550;40.588;49.684;2023-12-20T12:21:10;102560.09;;;11.19;56.70
60371;BME280;48550;40.588;49.684;2023-12-20T12:23:36;102552.31;;;11.16;57.32
60371;BME280;48550;40.588;49.684;2023-12-20T12:26:04;102558.47;;;11.17;57.15
60371;BME280;48550;40.588;49.684;2023-12-20T12:28:29;102554.34;;;11.11;57.71
60371;BME280;48550;40.588;49.684;2023-12-20T12:31:00;102554.66;;;11.05;58.21
60371;BME280;48550;40.588;49.684;2023-12-20T12:33:26;102552.25;;;11.00;57.71
60371;BME280;48550;40.588;49.684;2023-12-20T12:35:52;102549.81;;;10.96;58.03
60371;BME280;48550;40.588;49.684;2023-12-20T12:38:22;102558.84;;;10.92;57.75
60371;BME280;48550;40.588;49.684;2023-12-20T12:40:48;102559.22;;;10.84;57.96